Terminal Aerodrome Forecast
Issued by NWS

Home | Current Version | Previous Version | Text Only | Print | Product List | Glossary On
Versions: 1 2 3 4 5 6 7 8 9 10 11 12 13 14 15 16 17 18 19 20 21 22 23 24 25 26 27 28 29 30 31 32 33 34
000
FTUS43 KDMX 020520
TAFMCW
TAF
KMCW 020520Z 0206/0306 VRB03KT 3/4SM BR BKN005
      TEMPO 0206/0210 1/4SM FG VV002
     FM021500 02009KT 3SM BR VCSH BKN008 OVC015
     FM022000 33013KT 5SM BR VCSH SCT012 BKN025=

USA.gov is the U.S. government's official web portal to all federal, state and local government web resources and services.